createdAt,value
2016-03-22T17:22:31.697Z,988.59
2016-03-22T17:23:31.700Z,988.58
2016-03-22T17:24:31.688Z,988.58
2016-03-22T17:25:31.690Z,988.64
2016-03-22T17:26:31.693Z,988.63
2016-03-22T17:27:31.789Z,988.64
2016-03-22T17:28:31.823Z,988.65
2016-03-22T17:29:31.701Z,988.65
2016-03-22T17:30:31.704Z,988.63
2016-03-22T17:31:31.706Z,988.69
2016-03-22T17:32:31.709Z,988.67
2016-03-22T17:33:31.711Z,988.69
2016-03-22T17:34:31.714Z,988.68
2016-03-22T17:35:31.717Z,988.66
2016-03-22T17:36:31.719Z,988.69
2016-03-22T17:37:31.956Z,988.71
2016-03-22T17:38:31.943Z,988.73
2016-03-22T17:39:31.711Z,988.73
2016-03-22T17:40:31.715Z,988.72
2016-03-22T17:41:31.717Z,988.65
2016-03-22T17:42:31.750Z,988.7
2016-03-22T17:43:31.722Z,988.67
2016-03-22T17:44:31.709Z,988.69
2016-03-22T17:45:31.712Z,988.72
2016-03-22T17:46:31.730Z,988.67
2016-03-22T17:47:31.718Z,988.66
2016-03-22T17:48:31.752Z,988.66
2016-03-22T17:49:31.722Z,988.65
2016-03-22T17:50:31.725Z,988.7
2016-03-22T17:51:31.728Z,988.67
2016-03-22T17:52:31.731Z,988.68
2016-03-22T17:53:31.733Z,988.71
2016-03-22T17:54:31.721Z,988.68
2016-03-22T17:55:31.724Z,988.71
2016-03-22T17:56:31.726Z,988.7
2016-03-22T17:57:31.730Z,988.73
2016-03-22T17:58:31.732Z,988.74
2016-03-22T17:59:31.735Z,988.72
2016-03-22T18:00:31.721Z,988.74
2016-03-22T18:01:31.740Z,988.67
2016-03-22T18:02:31.727Z,988.7
2016-03-22T18:03:31.729Z,988.72
2016-03-22T18:04:31.732Z,988.67
2016-03-22T18:05:31.735Z,988.7
2016-03-22T18:06:31.737Z,988.69
2016-03-22T18:07:31.740Z,988.69
2016-03-22T18:08:31.727Z,988.7
2016-03-22T18:09:31.729Z,988.66
2016-03-22T18:10:31.732Z,988.67
2016-03-22T18:11:31.735Z,988.69
2016-03-22T18:12:31.738Z,988.73
2016-03-22T18:13:31.740Z,988.69
2016-03-22T18:14:31.742Z,988.69
2016-03-22T18:15:31.731Z,988.74
2016-03-22T18:16:31.733Z,988.76
2016-03-22T18:17:31.736Z,988.8
2016-03-22T18:18:31.739Z,988.81
2016-03-22T18:19:31.741Z,988.81
2016-03-22T18:20:31.744Z,988.8
2016-03-22T18:21:31.730Z,988.79
2016-03-22T18:22:31.734Z,988.8
2016-03-22T18:23:31.736Z,988.82
2016-03-22T18:24:31.738Z,988.78
2016-03-22T18:25:31.742Z,988.79
2016-03-22T18:26:31.744Z,988.79
2016-03-22T18:27:31.732Z,988.8
2016-03-22T18:28:31.750Z,988.78
2016-03-22T18:29:31.737Z,988.79
2016-03-22T18:30:31.740Z,988.78
2016-03-22T18:31:31.742Z,988.76
2016-03-22T18:32:31.746Z,988.76
2016-03-22T18:33:31.748Z,988.76
2016-03-22T18:34:31.751Z,988.77
2016-03-22T18:35:31.737Z,988.76
2016-03-22T18:36:31.740Z,988.74
2016-03-22T18:37:31.743Z,988.74
2016-03-22T18:38:31.745Z,988.77
2016-03-22T18:39:31.732Z,988.76
2016-03-22T18:40:31.735Z,988.73
2016-03-22T18:41:31.753Z,988.79
2016-03-22T18:42:31.740Z,988.82
2016-03-22T18:43:31.742Z,988.84
2016-03-22T18:44:31.745Z,988.8
2016-03-22T18:45:31.733Z,988.82
2016-03-22T18:46:31.736Z,988.83
2016-03-22T18:47:31.739Z,988.8
2016-03-22T18:48:31.741Z,988.84
2016-03-22T18:49:31.744Z,988.83
2016-03-22T18:50:31.731Z,988.82
2016-03-22T18:51:31.733Z,988.81
2016-03-22T18:52:31.736Z,988.83
2016-03-22T18:53:31.739Z,988.86
2016-03-22T18:54:31.741Z,988.83
2016-03-22T18:55:31.744Z,988.84
2016-03-22T18:56:31.746Z,988.84
2016-03-22T18:57:31.765Z,988.8
2016-03-22T18:58:31.736Z,988.81
2016-03-22T18:59:31.755Z,988.84
2016-03-22T19:00:31.742Z,988.83
2016-03-22T19:01:31.744Z,988.86
2016-03-22T19:02:31.747Z,988.85
2016-03-22T19:03:31.734Z,988.84
2016-03-22T19:04:31.738Z,988.84
2016-03-22T19:05:31.740Z,988.87
2016-03-22T19:06:31.742Z,988.86
2016-03-22T19:07:31.730Z,988.85
2016-03-22T19:08:31.732Z,988.84
2016-03-22T19:09:31.735Z,988.88
2016-03-22T19:10:31.737Z,988.89
2016-03-22T19:11:31.740Z,988.86
2016-03-22T19:12:31.759Z,988.85
2016-03-22T19:13:31.746Z,988.86
2016-03-22T19:14:31.733Z,988.85
2016-03-22T19:15:31.736Z,988.84
2016-03-22T19:16:31.738Z,988.85
2016-03-22T19:17:31.741Z,988.84
2016-03-22T19:18:31.744Z,988.84
2016-03-22T19:19:31.730Z,988.83
2016-03-22T19:20:31.734Z,988.86
2016-03-22T19:21:31.736Z,988.82
2016-03-22T19:22:31.738Z,988.84
2016-03-22T19:23:31.741Z,988.83
2016-03-22T19:24:31.744Z,988.81
2016-03-22T19:25:31.747Z,988.85
2016-03-22T19:26:31.734Z,988.86
2016-03-22T19:27:31.736Z,988.88
2016-03-22T19:28:31.739Z,988.86
2016-03-22T19:29:31.741Z,988.87
2016-03-22T19:30:31.744Z,988.87
2016-03-22T19:31:31.763Z,988.85
2016-03-22T19:32:31.735Z,988.79
2016-03-22T19:33:31.737Z,988.78
2016-03-22T19:34:31.740Z,988.79
2016-03-22T19:35:31.743Z,988.82
2016-03-22T19:36:31.745Z,988.79
2016-03-22T19:37:31.748Z,988.79
2016-03-22T19:38:31.750Z,988.81
2016-03-22T19:39:31.738Z,988.8
2016-03-22T19:40:31.740Z,988.8
2016-03-22T19:41:31.743Z,988.79
2016-03-22T19:42:31.746Z,988.78
2016-03-22T19:43:31.732Z,988.78
2016-03-22T19:44:31.735Z,988.78
2016-03-22T19:45:31.738Z,988.78
2016-03-22T19:46:31.819Z,988.74
2016-03-22T19:47:31.743Z,988.74
2016-03-22T19:48:31.730Z,988.74
2016-03-22T19:49:31.748Z,988.73
2016-03-22T19:50:31.751Z,988.74
2016-03-22T19:51:31.753Z,988.75
2016-03-22T19:52:31.742Z,988.72
2016-03-22T19:53:32.072Z,988.72
2016-03-22T19:54:31.747Z,988.71
2016-03-22T19:55:31.749Z,988.76
2016-03-22T19:56:31.752Z,988.74
2016-03-22T19:57:31.755Z,988.73
2016-03-22T19:58:31.741Z,988.74
2016-03-22T19:59:31.791Z,988.71
2016-03-22T20:00:31.841Z,988.76
2016-03-22T20:01:31.734Z,988.71
2016-03-22T20:02:31.752Z,988.74
2016-03-22T20:03:31.755Z,988.74
2016-03-22T20:04:31.743Z,988.72
2016-03-22T20:05:31.745Z,988.74
2016-03-22T20:06:31.748Z,988.75
2016-03-22T20:07:31.735Z,988.77
2016-03-22T20:08:31.753Z,988.73
2016-03-22T20:09:31.734Z,988.77
2016-03-22T20:10:31.722Z,988.75
2016-03-22T20:11:31.708Z,988.77
2016-03-22T20:12:31.695Z,988.73
2016-03-22T20:13:31.681Z,988.72
2016-03-22T20:14:31.655Z,988.74
2016-03-22T20:15:31.652Z,988.71
2016-03-22T20:16:31.727Z,988.7
2016-03-22T20:17:31.739Z,988.71
2016-03-22T20:18:31.643Z,988.66
2016-03-22T20:19:31.641Z,988.66
2016-03-22T20:20:31.626Z,988.65
2016-03-22T20:21:31.626Z,988.66
2016-03-22T20:22:31.627Z,988.63
2016-03-22T20:23:31.627Z,988.64
2016-03-22T20:24:31.613Z,988.66
2016-03-22T20:25:31.615Z,988.62
2016-03-22T20:26:31.616Z,988.65
2016-03-22T20:27:31.618Z,988.67
2016-03-22T20:28:31.620Z,988.65
2016-03-22T20:29:31.622Z,988.62
2016-03-22T20:30:31.624Z,988.64
2016-03-22T20:31:31.610Z,988.63
2016-03-22T20:32:31.628Z,988.63
2016-03-22T20:33:31.615Z,988.6
2016-03-22T20:34:31.617Z,988.61
2016-03-22T20:35:31.620Z,988.54
2016-03-22T20:36:31.623Z,988.55
2016-03-22T20:37:31.611Z,988.54
2016-03-22T20:38:31.628Z,988.54
2016-03-22T20:39:31.631Z,988.54
2016-03-22T20:40:31.619Z,988.56
2016-03-22T20:41:31.793Z,988.55
2016-03-22T20:42:31.624Z,988.53
2016-03-22T20:43:31.627Z,988.55
2016-03-22T20:44:31.630Z,988.55
2016-03-22T20:45:31.616Z,988.52
2016-03-22T20:46:31.650Z,988.53
2016-03-22T20:47:31.638Z,988.52
2016-03-22T20:48:31.624Z,988.53
2016-03-22T20:49:31.627Z,988.45
2016-03-22T20:50:31.785Z,988.51
2016-03-22T20:51:31.633Z,988.47
2016-03-22T20:52:31.651Z,988.51
2016-03-22T20:53:31.623Z,988.48
2016-03-22T20:54:31.625Z,988.51
2016-03-22T20:55:31.628Z,988.46
2016-03-22T20:56:31.630Z,988.48
2016-03-22T20:57:31.634Z,988.48
2016-03-22T20:58:31.620Z,988.46
2016-03-22T20:59:31.639Z,988.46
2016-03-22T21:00:31.625Z,988.45
2016-03-22T21:01:31.644Z,988.45
2016-03-22T21:02:31.631Z,988.46
2016-03-22T21:03:31.617Z,988.41
2016-03-22T21:04:31.620Z,988.43
2016-03-22T21:05:31.622Z,988.47
2016-03-22T21:06:31.626Z,988.44
2016-03-22T21:07:31.628Z,988.4
2016-03-22T21:08:31.631Z,988.45
2016-03-22T21:09:31.634Z,988.44
2016-03-22T21:10:31.621Z,988.45
2016-03-22T21:11:31.624Z,988.4
2016-03-22T21:12:31.626Z,988.42
2016-03-22T21:13:31.630Z,988.4
2016-03-22T21:14:31.632Z,988.4
2016-03-22T21:15:31.635Z,988.39
2016-03-22T21:16:31.637Z,988.4
2016-03-22T21:17:31.640Z,988.45
2016-03-22T21:18:31.643Z,988.43
2016-03-22T21:19:31.645Z,988.41
2016-03-22T21:20:31.633Z,988.41
2016-03-22T21:21:31.635Z,988.37
2016-03-22T21:22:31.637Z,988.42
2016-03-22T21:23:31.640Z,988.42
2016-03-22T21:24:31.643Z,988.41
2016-03-22T21:25:31.630Z,988.4
2016-03-22T21:26:31.649Z,988.4
2016-03-22T21:27:31.635Z,988.4
2016-03-22T21:28:31.638Z,988.4
2016-03-22T21:29:31.640Z,988.38
2016-03-22T21:30:31.644Z,988.34
2016-03-22T21:31:31.631Z,988.37
2016-03-22T21:32:31.634Z,988.34
2016-03-22T21:33:31.636Z,988.36
2016-03-22T21:34:31.639Z,988.35
2016-03-22T21:35:31.642Z,988.34
2016-03-22T21:36:31.628Z,988.31
2016-03-22T21:37:31.646Z,988.3
2016-03-22T21:38:31.633Z,988.31
2016-03-22T21:39:31.636Z,988.33
2016-03-22T21:40:31.639Z,988.31
2016-03-22T21:41:31.642Z,988.32
2016-03-22T21:42:31.645Z,988.29
2016-03-22T21:43:31.647Z,988.29
2016-03-22T21:44:31.649Z,988.23
2016-03-22T21:45:31.637Z,988.27
2016-03-22T21:46:31.640Z,988.26
2016-03-22T21:47:31.674Z,988.27
2016-03-22T21:48:31.676Z,988.26
2016-03-22T21:49:31.632Z,988.22
2016-03-22T21:50:31.635Z,988.28
2016-03-22T21:51:31.637Z,988.24
2016-03-22T21:52:31.641Z,988.27
2016-03-22T21:53:31.643Z,988.26
2016-03-22T21:54:31.646Z,988.28
2016-03-22T21:55:31.648Z,988.25
2016-03-22T21:56:31.635Z,988.26
2016-03-22T21:57:31.638Z,988.26
2016-03-22T21:58:31.640Z,988.27
2016-03-22T21:59:31.643Z,988.27
2016-03-22T22:00:31.645Z,988.27
2016-03-22T22:01:31.649Z,988.23
2016-03-22T22:02:31.651Z,988.24
2016-03-22T22:03:31.654Z,988.25
2016-03-22T22:04:31.642Z,988.26
2016-03-22T22:05:31.644Z,988.26
2016-03-22T22:06:31.647Z,988.29
2016-03-22T22:07:31.650Z,988.25
2016-03-22T22:08:31.653Z,988.23
2016-03-22T22:09:31.639Z,988.26
2016-03-22T22:10:31.642Z,988.26
2016-03-22T22:11:31.691Z,988.24
2016-03-22T22:12:31.663Z,988.24
2016-03-22T22:13:31.649Z,988.26
2016-03-22T22:14:31.653Z,988.23
2016-03-22T22:15:31.639Z,988.26
2016-03-22T22:16:31.658Z,988.22
2016-03-22T22:17:31.644Z,988.23
2016-03-22T22:18:31.647Z,988.21
2016-03-22T22:19:31.650Z,988.19
2016-03-22T22:20:31.652Z,988.18
2016-03-22T22:21:31.655Z,988.19
2016-03-22T22:22:31.657Z,988.16
2016-03-22T22:23:31.661Z,988.18
2016-03-22T22:24:31.648Z,988.19
2016-03-22T22:25:31.651Z,988.17
2016-03-22T22:26:31.654Z,988.19
2016-03-22T22:27:31.656Z,988.16
2016-03-22T22:28:31.643Z,988.17
2016-03-22T22:29:31.645Z,988.2
2016-03-22T22:30:31.649Z,988.16
2016-03-22T22:31:31.651Z,988.13
2016-03-22T22:32:31.653Z,988.17
2016-03-22T22:33:31.656Z,988.17
2016-03-22T22:34:31.644Z,988.19
2016-03-22T22:35:31.647Z,988.2
2016-03-22T22:36:31.650Z,988.17
2016-03-22T22:37:31.652Z,988.16
2016-03-22T22:38:31.655Z,988.14
2016-03-22T22:39:31.657Z,988.14
2016-03-22T22:40:31.645Z,988.14
2016-03-22T22:41:31.647Z,988.17
2016-03-22T22:42:31.650Z,988.15
2016-03-22T22:43:31.652Z,988.18
2016-03-22T22:44:31.655Z,988.13
2016-03-22T22:45:31.658Z,988.17
2016-03-22T22:46:31.660Z,988.13
2016-03-22T22:47:31.648Z,988.15
2016-03-22T22:48:31.650Z,988.17
2016-03-22T22:49:31.669Z,988.15
2016-03-22T22:50:31.655Z,988.11
2016-03-22T22:51:31.658Z,988.17
2016-03-22T22:52:31.646Z,988.11
2016-03-22T22:53:31.663Z,988.15
2016-03-22T22:54:31.650Z,988.15
2016-03-22T22:55:31.654Z,988.14
2016-03-22T22:56:31.656Z,988.12
2016-03-22T22:57:31.643Z,988.16
2016-03-22T22:58:31.646Z,988.1
2016-03-22T22:59:31.649Z,988.12
2016-03-22T23:00:31.651Z,988.11
2016-03-22T23:01:31.653Z,988.11
2016-03-22T23:02:31.657Z,988.12
2016-03-22T23:03:31.659Z,988.07
2016-03-22T23:04:31.661Z,988.1
2016-03-22T23:05:31.648Z,988.12
2016-03-22T23:06:31.651Z,988.09
2016-03-22T23:07:31.670Z,988.08
2016-03-22T23:08:31.656Z,988.08
2016-03-22T23:09:31.660Z,988.08
2016-03-22T23:10:31.662Z,988.09
2016-03-22T23:11:31.665Z,988.1
2016-03-22T23:12:31.652Z,988.06
2016-03-22T23:13:31.655Z,988.04
2016-03-22T23:14:31.658Z,988.03
2016-03-22T23:15:31.660Z,988.05
2016-03-22T23:16:31.663Z,988.04
2016-03-22T23:17:31.666Z,987.99
2016-03-22T23:18:31.668Z,987.98
2016-03-22T23:19:31.656Z,987.98
2016-03-22T23:20:31.658Z,987.97
2016-03-22T23:21:31.661Z,987.93
2016-03-22T23:22:31.663Z,987.94
2016-03-22T23:23:31.666Z,987.96
2016-03-22T23:24:31.669Z,987.91
2016-03-22T23:25:31.656Z,987.93
2016-03-22T23:26:31.659Z,987.9
2016-03-22T23:27:31.661Z,987.89
2016-03-22T23:28:31.664Z,987.88
2016-03-22T23:29:31.667Z,987.88
2016-03-22T23:30:31.670Z,987.88
2016-03-22T23:31:31.673Z,987.81
2016-03-22T23:32:31.659Z,987.84
2016-03-22T23:33:31.661Z,987.86
2016-03-22T23:34:31.665Z,987.83
2016-03-22T23:35:31.667Z,987.85
2016-03-22T23:36:31.670Z,987.87
2016-03-22T23:37:31.656Z,987.84
2016-03-22T23:38:31.675Z,987.87
2016-03-22T23:39:31.678Z,987.87
2016-03-22T23:40:31.665Z,987.85
2016-03-22T23:41:31.668Z,987.88
2016-03-22T23:42:31.670Z,987.87
2016-03-22T23:43:31.689Z,987.86
2016-03-22T23:44:31.676Z,987.83
2016-03-22T23:45:31.663Z,987.84
2016-03-22T23:46:31.666Z,987.82
2016-03-22T23:47:31.668Z,987.84
2016-03-22T23:48:31.671Z,987.82
2016-03-22T23:49:31.674Z,987.79
2016-03-22T23:50:31.660Z,987.83
2016-03-22T23:51:31.664Z,987.81
2016-03-22T23:52:31.666Z,987.79
2016-03-22T23:53:31.668Z,987.8
2016-03-22T23:54:31.687Z,987.83
2016-03-22T23:55:31.674Z,987.8
2016-03-22T23:56:31.677Z,987.81
2016-03-22T23:57:31.663Z,987.81
2016-03-22T23:58:31.666Z,987.81
2016-03-22T23:59:31.668Z,987.79
